This is the latest recevied weather packets stored in our database for station/object OE-11344. If no packets are shown the sender has not sent any weather packets the latest 10 day(s).
| Time | Temp. | Humidity | Pressure | Rain* | Wind** | Luminosity | Snow |
|---|---|---|---|---|---|---|---|
| 1787766912 | 16.11° C | 74% | 854.1 hPa | 0 mm | - | 24 W/m² | - |
| 1787766085 | 15.56° C | 79% | 854.1 hPa | 0 mm | - | 24 W/m² | - |
| 1787765712 | 15.56° C | 81% | 854.1 hPa | 0 mm | - | 30 W/m² | - |
| 1787765111 | 16.11° C | 79% | 854.1 hPa | 0 mm | - | 36 W/m² | - |
| 1787764285 | 16.67° C | 79% | 854.1 hPa | 0 mm | - | 54 W/m² | - |
| 1787763912 | 16.67° C | 78% | 854.2 hPa | 0 mm | - | 72 W/m² | - |
| 1787763311 | 17.22° C | 77% | 854.2 hPa | 0 mm | - | 72 W/m² | - |
| 1787762485 | 17.78° C | 73% | 854.1 hPa | 0 mm | - | 72 W/m² | - |
| 1787762112 | 17.78° C | 73% | 854.1 hPa | 0 mm | - | 109 W/m² | - |
| 1787761512 | 17.78° C | 71% | 854.1 hPa | 0 mm | - | 109 W/m² | - |
| 1787760685 | 18.33° C | 65% | 854.2 hPa | 0 mm | - | 109 W/m² | - |
| 1787760312 | 18.33° C | 66% | 854.3 hPa | 0 mm | - | 115 W/m² | - |
| 1787759712 | 18.89° C | 61% | 854.2 hPa | 0 mm | - | 139 W/m² | - |
| 1787758885 | 18.89° C | 62% | 854.2 hPa | 0 mm | - | 175 W/m² | - |
| 1787758511 | 18.89° C | 64% | 854.2 hPa | 0 mm | - | 332 W/m² | - |
| 1787757912 | 18.33° C | 65% | 854.2 hPa | 0 mm | - | 211 W/m² | - |
| 1787757085 | 19.44° C | 59% | 854.2 hPa | 0 mm | - | 278 W/m² | - |
| 1787756712 | 20° C | 60% | 854.2 hPa | 0 mm | - | 399 W/m² | - |
| 1787756112 | 20° C | 63% | 854.2 hPa | 0 mm | - | 320 W/m² | - |
| 1787755285 | 19.44° C | 58% | 854.2 hPa | 0 mm | - | 435 W/m² | - |
| 1787754912 | 19.44° C | 60% | 854.4 hPa | 0 mm | - | 362 W/m² | - |
| 1787754312 | 18.33° C | 60% | 854.4 hPa | 0 mm | - | 356 W/m² | - |
| 1787753485 | 18.89° C | 59% | 854.4 hPa | 0 mm | - | 320 W/m² | - |
| 1787753112 | 18.89° C | 58% | 854.4 hPa | 0 mm | - | 429 W/m² | - |
| 1787752512 | 18.33° C | 62% | 854.6 hPa | 0 mm | - | 302 W/m² | - |
* Rain latest hour (hover to see other rain measurements)
** Current wind speed in m/s (hover to see current wind gust speed)